Time;durP1;ratioP1;P1;durP2;ratioP2;P2;SDS_P1;SDS_P2;PMS_P1;PMS_P2;Temp;Humidity;BMP_temperature;BMP_pressure;BME280_temperature;BME280_humidity;BME280_pressure;Samples;Min_cycle;Max_cycle;Signal;HPM_P1;HPM_P2
2022/12/05 00:00:34;;;;;;;147.33;49.27;;;3.00;99.90;;;;;;5028585;28;20211;-72
2022/12/05 00:03:04;;;;;;;137.23;50.17;;;3.00;99.90;;;;;;5029280;28;20197;-74
2022/12/05 00:05:30;;;;;;;150.60;49.10;;;3.00;99.90;;;;;;5025238;28;20712;-71
2022/12/05 00:07:55;;;;;;;153.60;50.30;;;3.00;99.90;;;;;;5020263;28;20291;-72
2022/12/05 00:10:21;;;;;;;155.93;49.53;;;3.00;99.90;;;;;;5028201;28;20296;-71
2022/12/05 00:12:47;;;;;;;159.37;52.07;;;3.00;99.90;;;;;;5023250;28;20235;-73
2022/12/05 00:15:12;;;;;;;161.53;52.77;;;3.00;99.90;;;;;;5030639;28;20223;-71
2022/12/05 00:17:41;;;;;;;156.80;53.33;;;3.00;99.90;;;;;;5027624;28;20172;-72
2022/12/05 00:20:07;;;;;;;163.60;52.73;;;3.00;99.90;;;;;;5026233;28;20204;-71
2022/12/05 00:22:37;;;;;;;159.63;52.37;;;3.00;99.90;;;;;;5031801;28;20255;-71
2022/12/05 00:25:05;;;;;;;142.83;50.63;;;3.00;99.90;;;;;;5024526;28;20296;-72
2022/12/05 00:27:31;;;;;;;152.83;51.03;;;3.00;99.90;;;;;;5028922;28;20242;-72
2022/12/05 00:29:57;;;;;;;162.03;52.37;;;3.00;99.90;;;;;;5027019;28;20220;-72
2022/12/05 00:32:22;;;;;;;154.30;51.30;;;3.00;99.90;;;;;;5026530;28;20201;-72
2022/12/05 00:34:48;;;;;;;148.67;51.70;;;3.00;99.90;;;;;;5027609;28;20219;-71
2022/12/05 00:37:14;;;;;;;161.60;52.00;;;3.00;99.90;;;;;;5028578;28;20214;-72
2022/12/05 00:39:39;;;;;;;157.73;52.67;;;3.00;99.90;;;;;;5022831;28;20220;-72
2022/12/05 00:42:05;;;;;;;163.03;52.13;;;3.00;99.90;;;;;;5027395;28;20572;-72
2022/12/05 00:44:31;;;;;;;155.57;53.80;;;3.00;99.90;;;;;;5026889;28;20736;-72
2022/12/05 00:46:57;;;;;;;153.07;50.60;;;3.00;99.90;;;;;;5025586;28;20211;-72
2022/12/05 00:49:22;;;;;;;146.07;48.97;;;3.10;99.90;;;;;;5031574;28;20216;-74
2022/12/05 00:51:48;;;;;;;148.90;49.60;;;3.00;99.90;;;;;;5023525;28;20212;-74
2022/12/05 00:54:15;;;;;;;153.80;50.33;;;3.10;99.90;;;;;;5027344;28;20589;-75
2022/12/05 00:56:43;;;;;;;155.03;51.33;;;3.10;99.90;;;;;;5026441;28;20222;-74
2022/12/05 00:59:14;;;;;;;151.27;50.00;;;3.10;99.90;;;;;;5024101;28;20201;-74
2022/12/05 01:01:41;;;;;;;155.37;53.20;;;3.10;99.90;;;;;;5027350;28;20200;-74
2022/12/05 01:04:14;;;;;;;159.00;51.57;;;3.10;99.90;;;;;;5025946;28;20270;-74
2022/12/05 01:06:41;;;;;;;145.87;50.90;;;3.10;99.90;;;;;;5022967;28;20243;-74
2022/12/05 01:09:09;;;;;;;157.40;54.77;;;3.00;99.90;;;;;;5028933;28;20181;-75
2022/12/05 01:11:35;;;;;;;146.47;50.33;;;3.10;99.90;;;;;;5025358;28;20231;-74
2022/12/05 01:14:01;;;;;;;148.47;50.27;;;3.10;99.90;;;;;;5030289;28;20208;-74
2022/12/05 01:16:30;;;;;;;155.57;51.77;;;3.10;99.90;;;;;;5029234;28;20207;-75
2022/12/05 01:18:57;;;;;;;160.50;52.07;;;3.00;99.90;;;;;;5021871;28;20734;-74
2022/12/05 01:21:24;;;;;;;140.77;50.53;;;3.00;99.90;;;;;;5031130;28;20180;-75
2022/12/05 01:23:50;;;;;;;165.60;55.33;;;3.00;99.90;;;;;;5027154;28;20207;-75
2022/12/05 01:26:18;;;;;;;156.00;51.70;;;3.00;99.90;;;;;;5024132;28;20204;-74
2022/12/05 01:28:44;;;;;;;165.43;53.60;;;3.00;99.90;;;;;;5025767;28;20609;-74
2022/12/05 01:31:22;;;;;;;150.60;52.23;;;3.00;99.90;;;;;;5027025;28;20228;-75
2022/12/05 01:33:49;;;;;;;153.43;53.97;;;3.00;99.90;;;;;;5022798;28;20220;-75
2022/12/05 01:36:15;;;;;;;159.03;54.33;;;3.00;99.90;;;;;;5030931;28;20534;-74
2022/12/05 01:38:41;;;;;;;162.97;54.23;;;3.10;99.90;;;;;;5027539;28;20176;-74
2022/12/05 01:41:12;;;;;;;148.27;49.67;;;3.10;99.90;;;;;;5025988;28;20679;-75
2022/12/05 01:44:03;;;;;;;167.00;52.60;;;3.10;99.90;;;;;;5028492;28;20240;-74
2022/12/05 01:46:31;;;;;;;156.73;53.90;;;3.10;99.90;;;;;;5025765;28;20260;-74
2022/12/05 01:49:11;;;;;;;152.90;51.90;;;3.10;99.90;;;;;;5022803;28;20212;-75
2022/12/05 01:51:40;;;;;;;158.93;51.73;;;3.10;99.90;;;;;;5024168;28;20231;-74
2022/12/05 01:54:07;;;;;;;155.83;52.03;;;3.10;99.90;;;;;;5022503;28;20598;-75
2022/12/05 01:56:35;;;;;;;166.13;53.80;;;3.10;99.90;;;;;;5030041;28;20204;-75
2022/12/05 01:59:02;;;;;;;151.27;49.53;;;3.10;99.90;;;;;;5022917;28;20212;-74
2022/12/05 02:01:28;;;;;;;153.37;52.63;;;3.10;99.90;;;;;;5024049;28;20258;-74
2022/12/05 02:03:56;;;;;;;153.67;53.10;;;3.10;99.90;;;;;;5025953;28;20300;-74
2022/12/05 02:06:24;;;;;;;154.33;52.87;;;3.10;99.90;;;;;;5024796;28;20552;-74
2022/12/05 02:08:52;;;;;;;148.23;50.77;;;3.10;99.90;;;;;;5026268;28;20196;-74
2022/12/05 02:11:18;;;;;;;166.07;53.00;;;3.10;99.90;;;;;;5021682;28;20219;-74
2022/12/05 02:14:04;;;;;;;159.40;50.50;;;3.20;99.90;;;;;;5021345;28;20214;-74
2022/12/05 02:16:32;;;;;;;151.73;52.33;;;3.10;99.90;;;;;;5026837;28;20326;-74
2022/12/05 02:19:20;;;;;;;150.07;53.47;;;3.20;99.90;;;;;;5021568;28;20295;-74
2022/12/05 02:21:54;;;;;;;164.33;52.50;;;3.10;99.90;;;;;;5022256;28;20213;-75
2022/12/05 02:24:32;;;;;;;151.77;52.03;;;3.10;99.90;;;;;;5024690;28;20196;-74
2022/12/05 02:27:31;;;;;;;163.13;52.27;;;3.10;99.90;;;;;;5021461;28;20188;-75
2022/12/05 02:30:12;;;;;;;148.27;51.60;;;3.10;99.90;;;;;;5025406;28;20227;-74
2022/12/05 02:32:48;;;;;;;157.23;50.30;;;3.10;99.90;;;;;;5023373;28;20213;-74
2022/12/05 02:35:45;;;;;;;150.47;49.70;;;3.20;99.90;;;;;;5025511;28;20212;-73
2022/12/05 02:38:49;;;;;;;157.07;51.23;;;3.20;99.90;;;;;;5025443;28;20274;-75
2022/12/05 02:41:35;;;;;;;156.30;53.03;;;3.10;99.90;;;;;;4961541;28;20693;-74
2022/12/05 02:44:16;;;;;;;160.80;51.33;;;3.10;99.90;;;;;;4949813;28;20222;-74
2022/12/05 02:46:43;;;;;;;165.67;52.50;;;3.20;99.90;;;;;;5006640;28;20227;-74
2022/12/05 02:49:11;;;;;;;149.57;50.47;;;3.10;99.90;;;;;;5027331;28;20220;-74
2022/12/05 02:51:43;;;;;;;162.77;51.63;;;3.20;99.90;;;;;;5025669;28;20221;-74
2022/12/05 02:54:13;;;;;;;152.43;50.23;;;3.20;99.90;;;;;;5027709;28;20236;-74
2022/12/05 02:56:41;;;;;;;151.33;50.33;;;3.20;99.90;;;;;;5024519;28;20188;-74
2022/12/05 02:59:07;;;;;;;160.67;49.73;;;3.20;99.90;;;;;;5023488;28;20216;-74
2022/12/05 03:01:33;;;;;;;144.30;49.37;;;3.20;99.90;;;;;;5023906;28;20212;-74
2022/12/05 03:04:01;;;;;;;150.67;50.80;;;3.20;99.90;;;;;;5024868;28;20775;-74
2022/12/05 03:07:03;;;;;;;162.20;49.43;;;3.20;99.90;;;;;;5024766;28;20188;-74
2022/12/05 03:09:46;;;;;;;137.47;47.80;;;3.20;99.90;;;;;;5016703;28;20223;-74
2022/12/05 03:12:21;;;;;;;129.47;46.37;;;3.20;99.90;;;;;;5021715;28;20263;-74
2022/12/05 03:15:01;;;;;;;129.03;46.90;;;3.20;99.90;;;;;;5019403;28;20210;-73
2022/12/05 03:17:52;;;;;;;130.40;45.23;;;3.20;99.90;;;;;;5020217;28;20266;-74
2022/12/05 03:20:25;;;;;;;125.77;44.53;;;3.20;99.90;;;;;;5020524;28;20208;-72
2022/12/05 03:23:25;;;;;;;113.00;42.37;;;3.20;99.90;;;;;;5018502;28;20231;-74
2022/12/05 03:26:19;;;;;;;121.80;41.57;;;3.20;99.90;;;;;;5025625;28;20239;-72
2022/12/05 03:29:07;;;;;;;110.27;41.50;;;3.30;99.90;;;;;;5025002;28;20299;-72
2022/12/05 03:31:51;;;;;;;120.63;40.97;;;3.30;99.90;;;;;;5024868;28;20215;-73
2022/12/05 03:34:25;;;;;;;111.40;41.10;;;3.30;99.90;;;;;;5024617;28;20729;-73
2022/12/05 03:36:52;;;;;;;117.07;39.90;;;3.30;99.90;;;;;;5024140;28;21121;-73
2022/12/05 03:39:24;;;;;;;104.10;38.43;;;3.30;99.90;;;;;;5023185;28;20264;-72
2022/12/05 03:42:18;;;;;;;95.83;38.87;;;3.30;99.90;;;;;;5025677;28;20169;-72
2022/12/05 03:44:53;;;;;;;100.77;39.63;;;3.30;99.90;;;;;;5023156;28;20204;-73
2022/12/05 03:47:54;;;;;;;97.90;37.43;;;3.30;99.90;;;;;;5029279;28;20264;-73
2022/12/05 03:50:26;;;;;;;91.77;35.60;;;3.30;99.90;;;;;;5019091;28;20295;-73
2022/12/05 03:53:08;;;;;;;94.50;35.60;;;3.30;99.90;;;;;;5022619;28;20220;-75
2022/12/05 03:55:38;;;;;;;97.97;36.93;;;3.30;99.90;;;;;;5023094;28;20309;-73
2022/12/05 03:58:13;;;;;;;89.33;36.40;;;3.30;99.90;;;;;;5022138;28;20221;-74
2022/12/05 04:00:44;;;;;;;87.87;35.93;;;3.30;99.90;;;;;;5024361;28;20219;-71
2022/12/05 04:03:39;;;;;;;94.13;36.47;;;3.30;99.90;;;;;;5021079;28;20284;-70
2022/12/05 04:06:28;;;;;;;95.73;34.80;;;3.30;99.90;;;;;;5024792;28;20688;-71
2022/12/05 04:08:59;;;;;;;88.83;34.90;;;3.30;99.90;;;;;;5017156;28;20251;-69
2022/12/05 04:11:28;;;;;;;93.27;37.30;;;3.30;99.90;;;;;;5026352;28;20220;-70
2022/12/05 04:14:07;;;;;;;88.60;35.60;;;3.30;99.90;;;;;;5021796;28;20296;-70
2022/12/05 04:21:36;;;;;;;79.83;33.97;;;3.30;99.90;;;;;;5021495;28;20223;-71
2022/12/05 04:22:20;;;;;;;82.20;34.47;;;3.40;99.90;;;;;;5020824;28;20212;-73
2022/12/05 04:27:40;;;;;;;85.03;32.10;;;3.30;99.90;;;;;;5026290;28;20678;-73
2022/12/05 04:30:25;;;;;;;81.33;32.40;;;3.30;99.90;;;;;;5020739;28;20223;-71
2022/12/05 04:32:56;;;;;;;79.47;33.43;;;3.30;99.90;;;;;;5022588;28;20231;-71
2022/12/05 04:35:40;;;;;;;91.90;34.67;;;3.30;99.90;;;;;;5024070;28;20665;-73
2022/12/05 04:38:17;;;;;;;87.90;35.57;;;3.30;99.90;;;;;;5020775;28;20258;-71
2022/12/05 04:40:57;;;;;;;86.53;33.83;;;3.30;99.90;;;;;;5024565;28;20219;-73
2022/12/05 04:43:25;;;;;;;82.13;32.07;;;3.30;99.90;;;;;;5021690;28;20287;-70
2022/12/05 04:45:53;;;;;;;83.97;32.77;;;3.30;99.90;;;;;;5022842;28;20238;-73
2022/12/05 04:48:21;;;;;;;83.60;35.17;;;3.40;99.90;;;;;;5023513;28;20183;-73
2022/12/05 04:50:49;;;;;;;78.33;33.30;;;3.40;99.90;;;;;;5019385;28;20224;-72
2022/12/05 04:53:16;;;;;;;75.80;31.70;;;3.40;99.90;;;;;;5021229;28;20252;-71
2022/12/05 04:55:46;;;;;;;68.97;30.47;;;3.30;99.90;;;;;;5021997;28;20232;-71
2022/12/05 04:58:20;;;;;;;76.17;32.77;;;3.40;99.90;;;;;;5020626;28;20270;-72
2022/12/05 05:01:07;;;;;;;83.33;35.63;;;3.40;99.90;;;;;;5018724;28;20979;-72
2022/12/05 05:03:42;;;;;;;72.03;31.37;;;3.40;99.90;;;;;;5022267;28;20527;-70
2022/12/05 05:06:10;;;;;;;67.20;31.30;;;3.40;99.90;;;;;;5023124;28;20183;-71
2022/12/05 05:08:36;;;;;;;62.73;26.80;;;3.40;99.90;;;;;;5023052;28;20235;-72
2022/12/05 05:11:34;;;;;;;66.93;28.97;;;3.40;99.90;;;;;;5020796;28;20221;-71
2022/12/05 05:14:00;;;;;;;61.33;29.67;;;3.40;99.90;;;;;;4994142;28;20766;-72
2022/12/05 05:16:44;;;;;;;71.43;29.80;;;3.50;99.90;;;;;;5019490;28;20201;-71
2022/12/05 05:19:11;;;;;;;66.57;28.20;;;3.50;99.90;;;;;;5024147;28;20204;-70
2022/12/05 05:21:41;;;;;;;63.73;26.97;;;3.40;99.90;;;;;;5025229;28;20319;-71
2022/12/05 05:24:09;;;;;;;67.90;26.90;;;3.40;99.90;;;;;;5026147;28;20204;-71
2022/12/05 05:26:41;;;;;;;62.93;27.13;;;3.50;99.90;;;;;;5028461;28;20195;-71
2022/12/05 05:29:08;;;;;;;61.87;27.13;;;3.40;99.90;;;;;;5023515;28;20219;-71
2022/12/05 05:31:34;;;;;;;59.27;27.73;;;3.40;99.90;;;;;;5026833;28;20310;-73
2022/12/05 05:34:01;;;;;;;55.60;26.47;;;3.40;99.90;;;;;;5025005;28;20227;-72
2022/12/05 05:36:27;;;;;;;55.90;26.57;;;3.40;99.90;;;;;;5023413;28;20186;-72
2022/12/05 05:38:56;;;;;;;53.50;24.60;;;3.40;99.90;;;;;;5026252;28;20204;-70
2022/12/05 05:41:27;;;;;;;51.93;26.00;;;3.40;99.90;;;;;;5029920;28;20215;-71
2022/12/05 05:43:54;;;;;;;55.33;24.30;;;3.40;99.90;;;;;;5026573;28;20234;-71
2022/12/05 05:46:22;;;;;;;52.30;26.00;;;3.40;99.90;;;;;;5028322;28;20212;-72
2022/12/05 05:48:48;;;;;;;53.03;25.03;;;3.40;99.90;;;;;;5025377;28;20215;-71
2022/12/05 05:51:15;;;;;;;48.50;24.83;;;3.40;99.90;;;;;;5025943;28;20207;-72
2022/12/05 05:53:42;;;;;;;50.30;24.57;;;3.50;99.90;;;;;;5024891;28;20240;-73
2022/12/05 05:56:13;;;;;;;46.03;23.40;;;3.50;99.90;;;;;;5023025;28;20727;-72
2022/12/05 05:58:39;;;;;;;44.97;21.67;;;3.50;99.90;;;;;;5026387;28;20293;-71
2022/12/05 06:01:19;;;;;;;46.87;22.80;;;3.40;99.90;;;;;;5024474;28;20204;-70
2022/12/05 06:03:44;;;;;;;44.90;20.83;;;3.50;99.90;;;;;;5023888;28;20358;-70
2022/12/05 06:06:13;;;;;;;44.03;21.07;;;3.50;99.90;;;;;;5027752;28;20216;-72
2022/12/05 06:08:41;;;;;;;37.97;19.83;;;3.50;99.90;;;;;;5027517;28;20169;-71
2022/12/05 06:11:17;;;;;;;45.87;20.57;;;3.50;99.90;;;;;;5024216;28;20731;-71
2022/12/05 06:13:43;;;;;;;38.17;18.70;;;3.50;99.90;;;;;;5025034;28;20251;-73
2022/12/05 06:16:10;;;;;;;37.10;20.00;;;3.50;99.90;;;;;;5023048;28;20501;-71
2022/12/05 06:18:36;;;;;;;39.50;19.57;;;3.50;99.90;;;;;;5025429;28;20714;-71
2022/12/05 06:21:04;;;;;;;36.90;19.20;;;3.50;99.90;;;;;;5021213;28;20182;-72
2022/12/05 06:23:30;;;;;;;36.50;19.37;;;3.50;99.90;;;;;;5022696;28;20270;-71
2022/12/05 06:25:56;;;;;;;32.07;17.43;;;3.50;99.90;;;;;;5021319;28;20209;-73
2022/12/05 06:28:23;;;;;;;35.07;18.27;;;3.50;99.90;;;;;;5029152;28;20226;-71
2022/12/05 06:30:49;;;;;;;37.40;19.10;;;3.50;99.90;;;;;;5021728;28;20226;-71
2022/12/05 06:33:15;;;;;;;36.63;18.50;;;3.50;99.90;;;;;;5027242;28;20208;-71
2022/12/05 06:35:41;;;;;;;35.20;18.97;;;3.50;99.90;;;;;;5024150;28;20753;-71
2022/12/05 06:38:07;;;;;;;33.53;18.43;;;3.50;99.90;;;;;;5024406;28;20584;-71
2022/12/05 06:40:33;;;;;;;33.80;17.40;;;3.50;99.90;;;;;;5028723;28;20302;-71
2022/12/05 06:42:59;;;;;;;37.53;19.13;;;3.50;99.90;;;;;;5021216;28;20220;-71
2022/12/05 06:45:25;;;;;;;37.20;18.83;;;3.50;99.90;;;;;;5028970;28;20181;-72
2022/12/05 06:47:51;;;;;;;37.57;18.87;;;3.50;99.90;;;;;;5023773;28;20245;-71
2022/12/05 06:50:17;;;;;;;36.63;17.87;;;3.50;99.90;;;;;;5028412;28;20299;-71
2022/12/05 06:52:43;;;;;;;35.77;19.07;;;3.50;99.90;;;;;;5024798;28;20243;-71
2022/12/05 06:55:09;;;;;;;36.83;19.10;;;3.60;99.90;;;;;;5027644;28;20256;-70
2022/12/05 06:57:35;;;;;;;39.77;18.30;;;3.60;99.90;;;;;;5022687;28;20222;-70
2022/12/05 07:02:45;;;;;;;36.63;19.10;;;3.50;99.90;;;;;;5021603;28;20585;-71
2022/12/05 07:05:10;;;;;;;38.07;18.73;;;3.50;99.90;;;;;;5024599;28;20220;-72
2022/12/05 07:07:36;;;;;;;40.90;19.83;;;3.50;99.90;;;;;;5026738;28;20222;-75
2022/12/05 07:10:04;;;;;;;37.40;20.47;;;3.50;99.90;;;;;;5026066;28;20274;-71
2022/12/05 07:12:32;;;;;;;42.57;19.27;;;3.50;99.90;;;;;;5021881;28;20686;-71
2022/12/05 07:14:58;;;;;;;40.90;20.30;;;3.60;99.90;;;;;;5023075;28;20195;-72
2022/12/05 07:17:23;;;;;;;39.33;20.30;;;3.50;99.90;;;;;;5028411;28;20262;-72
2022/12/05 07:19:50;;;;;;;37.87;19.63;;;3.50;99.90;;;;;;5023547;28;20231;-72
2022/12/05 07:22:20;;;;;;;37.27;19.03;;;3.60;99.90;;;;;;5024878;28;20265;-72
2022/12/05 07:24:47;;;;;;;39.53;20.37;;;3.60;99.90;;;;;;5022895;28;20221;-72
2022/12/05 07:27:14;;;;;;;38.50;19.40;;;3.60;99.90;;;;;;5026209;28;20199;-72
2022/12/05 07:29:40;;;;;;;39.77;19.67;;;3.60;99.90;;;;;;5023165;28;20242;-72
2022/12/05 07:32:06;;;;;;;39.37;20.17;;;3.50;99.90;;;;;;5023571;28;20215;-71
2022/12/05 07:34:31;;;;;;;34.40;18.80;;;3.60;99.90;;;;;;5026538;28;20744;-72
2022/12/05 07:36:57;;;;;;;40.20;20.27;;;3.50;99.90;;;;;;5025797;28;20214;-72
2022/12/05 07:39:23;;;;;;;37.77;20.20;;;3.60;99.90;;;;;;5024605;28;20183;-71
2022/12/05 07:41:48;;;;;;;39.47;20.33;;;3.50;99.90;;;;;;5024744;28;20231;-73
2022/12/05 07:44:14;;;;;;;37.30;18.93;;;3.50;99.90;;;;;;5022384;28;20298;-72
2022/12/05 07:46:40;;;;;;;37.57;20.67;;;3.50;99.90;;;;;;5021631;28;20266;-72
2022/12/05 07:49:06;;;;;;;35.57;20.20;;;3.60;99.90;;;;;;5026488;28;20219;-72
2022/12/05 07:51:32;;;;;;;38.93;19.80;;;3.50;99.90;;;;;;5022416;28;20223;-72
2022/12/05 07:53:58;;;;;;;36.23;19.73;;;3.50;99.90;;;;;;5026987;28;20262;-71
2022/12/05 07:56:24;;;;;;;38.20;19.70;;;3.50;99.90;;;;;;5023381;28;20206;-72
2022/12/05 07:58:50;;;;;;;37.43;18.60;;;3.50;99.90;;;;;;5021992;28;20219;-72
2022/12/05 08:01:24;;;;;;;33.63;17.97;;;3.50;99.90;;;;;;5025808;28;20202;-75
2022/12/05 08:03:52;;;;;;;36.20;18.90;;;3.50;99.90;;;;;;5020946;28;20581;-74
2022/12/05 08:06:23;;;;;;;30.47;18.00;;;3.50;99.90;;;;;;5024514;28;20902;-72
2022/12/05 08:08:50;;;;;;;33.37;18.37;;;3.50;99.90;;;;;;5023266;28;20186;-72
2022/12/05 08:11:21;;;;;;;33.10;18.13;;;3.60;99.90;;;;;;5024382;28;20285;-72
2022/12/05 08:13:48;;;;;;;33.87;17.77;;;3.60;99.90;;;;;;5027715;28;20208;-73
2022/12/05 08:16:16;;;;;;;32.13;17.17;;;3.60;99.90;;;;;;5031433;28;20249;-70
2022/12/05 08:18:42;;;;;;;33.03;17.63;;;3.60;99.90;;;;;;5022141;28;20220;-71
2022/12/05 08:21:16;;;;;;;33.50;18.33;;;3.60;99.90;;;;;;5029197;28;20180;-73
2022/12/05 08:23:42;;;;;;;32.63;18.30;;;3.60;99.90;;;;;;5026126;28;20206;-72
2022/12/05 08:26:29;;;;;;;33.13;18.43;;;3.60;99.90;;;;;;5026905;28;20216;-73
2022/12/05 08:29:00;;;;;;;36.93;18.87;;;3.60;99.90;;;;;;5026698;28;20703;-71
2022/12/05 08:31:27;;;;;;;37.37;19.53;;;3.60;99.90;;;;;;5026018;28;20347;-69
2022/12/05 08:33:56;;;;;;;33.10;17.10;;;3.60;99.90;;;;;;5029900;28;20218;-73
2022/12/05 08:36:21;;;;;;;32.70;17.87;;;3.60;99.90;;;;;;5028217;28;20671;-71
2022/12/05 08:38:47;;;;;;;34.43;18.47;;;3.60;99.90;;;;;;5022972;28;20230;-71
2022/12/05 08:41:16;;;;;;;35.97;17.53;;;3.70;99.90;;;;;;5029290;28;20203;-70
2022/12/05 08:43:42;;;;;;;36.50;17.60;;;3.60;99.90;;;;;;5024600;28;20328;-70
2022/12/05 08:46:09;;;;;;;36.63;19.80;;;3.60;99.90;;;;;;5026793;28;20311;-71
2022/12/05 08:48:35;;;;;;;33.80;17.70;;;3.60;99.90;;;;;;5029410;28;20323;-70
2022/12/05 08:51:09;;;;;;;36.90;19.23;;;3.60;99.90;;;;;;5023556;28;20724;-72
2022/12/05 08:53:36;;;;;;;33.47;18.33;;;3.60;99.90;;;;;;5031236;28;20228;-71
2022/12/05 08:56:06;;;;;;;40.27;19.93;;;3.60;99.90;;;;;;5026551;28;20236;-73
2022/12/05 08:58:32;;;;;;;34.97;18.70;;;3.60;99.90;;;;;;5024477;28;20568;-71
2022/12/05 09:01:29;;;;;;;36.83;18.30;;;3.60;99.90;;;;;;5023668;28;20209;-71
2022/12/05 09:03:55;;;;;;;35.87;17.93;;;3.70;99.90;;;;;;5027005;28;20220;-71
2022/12/05 09:06:23;;;;;;;32.93;18.50;;;3.60;99.90;;;;;;5024371;28;20174;-73
2022/12/05 09:08:54;;;;;;;32.30;18.13;;;3.60;99.90;;;;;;5028446;28;20665;-70
2022/12/05 09:11:22;;;;;;;32.53;17.17;;;3.60;99.90;;;;;;5023421;28;20299;-71
2022/12/05 09:13:49;;;;;;;32.30;16.70;;;3.60;99.90;;;;;;5031014;28;20217;-71
2022/12/05 09:16:29;;;;;;;31.20;16.93;;;3.60;99.90;;;;;;5027609;28;20228;-73
2022/12/05 09:18:55;;;;;;;31.77;16.40;;;3.60;99.90;;;;;;5025530;28;20203;-71
2022/12/05 09:21:26;;;;;;;31.07;16.40;;;3.60;99.90;;;;;;5029906;28;20211;-73
2022/12/05 09:23:52;;;;;;;30.07;16.77;;;3.60;99.90;;;;;;5025449;28;20701;-70
2022/12/05 09:26:21;;;;;;;32.73;17.43;;;3.70;99.90;;;;;;5026105;28;20204;-71
2022/12/05 09:28:47;;;;;;;28.80;16.50;;;3.60;99.90;;;;;;5032727;28;20745;-71
2022/12/05 09:31:16;;;;;;;29.80;16.63;;;3.70;99.90;;;;;;5032065;28;20213;-73
2022/12/05 09:33:43;;;;;;;30.40;16.93;;;3.70;99.90;;;;;;5023909;28;20212;-71
2022/12/05 09:36:22;;;;;;;26.97;15.80;;;3.70;99.90;;;;;;5028565;28;20673;-72
2022/12/05 09:38:48;;;;;;;29.87;16.10;;;3.60;99.90;;;;;;5023679;28;20182;-71
2022/12/05 09:44:44;;;;;;;35.33;17.77;;;3.60;99.90;;;;;;5021155;28;20227;-71
2022/12/05 09:47:23;;;;;;;31.20;15.57;;;3.60;99.90;;;;;;5025876;28;20684;-71
2022/12/05 09:50:20;;;;;;;36.30;18.37;;;3.60;99.90;;;;;;5026318;28;20197;-71
2022/12/05 09:53:06;;;;;;;31.13;16.57;;;3.60;99.90;;;;;;5023166;28;20208;-70
2022/12/05 09:55:43;;;;;;;32.47;17.50;;;3.60;99.90;;;;;;5027413;28;20208;-70
2022/12/05 09:58:27;;;;;;;35.80;18.37;;;3.60;99.90;;;;;;5024631;28;20295;-71
2022/12/05 10:01:07;;;;;;;34.50;17.87;;;3.60;99.90;;;;;;5017096;28;20267;-69
2022/12/05 10:03:48;;;;;;;35.23;18.00;;;3.60;99.90;;;;;;5040565;22;20232;-72
2022/12/05 10:06:32;;;;;;;38.53;17.70;;;3.70;99.90;;;;;;5029997;28;20241;-74
2022/12/05 10:09:09;;;;;;;36.30;17.83;;;3.60;99.90;;;;;;5022393;28;20592;-73
2022/12/05 10:11:40;;;;;;;33.73;18.03;;;3.60;99.90;;;;;;5018951;28;20275;-74
2022/12/05 10:14:30;;;;;;;34.83;18.97;;;3.60;99.90;;;;;;5021097;28;20264;-74
2022/12/05 10:17:06;;;;;;;32.87;18.90;;;3.60;99.90;;;;;;4996548;28;20256;-73
2022/12/05 10:19:37;;;;;;;34.50;17.70;;;3.70;99.90;;;;;;5027730;28;20205;-74
2022/12/05 10:22:22;;;;;;;36.00;17.83;;;3.70;99.90;;;;;;5026486;28;20220;-74
2022/12/05 10:24:53;;;;;;;33.60;17.80;;;3.60;99.90;;;;;;5023982;28;20221;-75
2022/12/05 10:27:26;;;;;;;35.87;17.70;;;3.60;99.90;;;;;;5022998;28;20526;-75
2022/12/05 10:30:04;;;;;;;31.90;18.40;;;3.60;99.90;;;;;;5026515;28;20624;-74
2022/12/05 10:32:53;;;;;;;32.27;17.73;;;3.70;99.90;;;;;;5025020;28;20209;-74
2022/12/05 10:35:26;;;;;;;32.67;17.13;;;3.70;99.90;;;;;;5025376;28;20242;-75
2022/12/05 10:37:56;;;;;;;35.53;18.83;;;3.80;99.90;;;;;;5026553;28;20236;-74
2022/12/05 10:40:22;;;;;;;36.90;17.93;;;3.70;99.90;;;;;;5022639;28;20209;-74
2022/12/05 10:42:49;;;;;;;34.67;19.10;;;3.70;99.90;;;;;;5027369;28;20282;-74
2022/12/05 10:45:20;;;;;;;34.03;17.63;;;3.70;99.90;;;;;;5028909;28;20288;-74
2022/12/05 10:47:47;;;;;;;30.80;17.20;;;3.70;99.90;;;;;;5023871;28;20228;-71
2022/12/05 10:50:22;;;;;;;37.13;17.87;;;3.80;99.90;;;;;;5026654;28;20227;-75
2022/12/05 10:52:47;;;;;;;34.87;18.03;;;3.70;99.90;;;;;;5027207;28;20317;-73
2022/12/05 10:55:16;;;;;;;33.20;19.00;;;3.70;99.90;;;;;;5029125;28;20354;-74
2022/12/05 10:57:47;;;;;;;30.00;18.00;;;3.70;99.90;;;;;;5022890;28;20706;-73
2022/12/05 11:00:18;;;;;;;31.27;17.77;;;3.70;99.90;;;;;;5023200;28;20671;-74
2022/12/05 11:02:47;;;;;;;37.60;18.07;;;3.70;99.90;;;;;;5028543;28;20222;-75
2022/12/05 11:05:12;;;;;;;35.73;18.73;;;3.70;99.90;;;;;;5027100;28;20576;-74
2022/12/05 11:07:48;;;;;;;35.63;18.03;;;3.80;99.90;;;;;;5023260;28;20214;-74
2022/12/05 11:10:21;;;;;;;33.23;19.23;;;3.70;99.90;;;;;;5023619;28;20226;-74
2022/12/05 11:12:47;;;;;;;34.60;17.87;;;3.80;99.90;;;;;;5024966;28;20218;-74
2022/12/05 11:15:20;;;;;;;36.80;19.53;;;3.80;99.90;;;;;;5025155;28;20199;-74
2022/12/05 11:17:46;;;;;;;36.40;18.10;;;3.80;99.90;;;;;;5024424;28;20200;-71
2022/12/05 11:20:18;;;;;;;36.30;19.20;;;3.80;99.90;;;;;;5027776;28;20229;-75
2022/12/05 11:22:49;;;;;;;37.93;19.43;;;3.80;99.90;;;;;;5024900;28;20910;-74
2022/12/05 11:25:32;;;;;;;39.27;19.13;;;3.80;99.90;;;;;;5023082;28;20215;-74
2022/12/05 11:28:19;;;;;;;41.37;21.17;;;3.80;99.90;;;;;;5015392;28;20269;-75
2022/12/05 11:30:58;;;;;;;40.30;19.27;;;3.80;99.90;;;;;;5021957;28;20306;-74
2022/12/05 11:33:27;;;;;;;39.17;20.57;;;3.80;99.90;;;;;;5023390;28;20584;-75
2022/12/05 11:35:56;;;;;;;39.53;20.97;;;3.90;99.90;;;;;;5028047;28;20178;-71
2022/12/05 11:38:27;;;;;;;36.63;19.77;;;3.90;99.90;;;;;;5029021;28;20856;-75
2022/12/05 11:41:13;;;;;;;40.43;20.53;;;3.90;99.90;;;;;;5018044;28;20734;-71
2022/12/05 11:43:56;;;;;;;37.53;20.73;;;3.90;99.90;;;;;;5028099;28;20222;-74
2022/12/05 11:46:46;;;;;;;37.47;18.63;;;3.90;99.90;;;;;;5032091;28;20268;-74
2022/12/05 11:49:28;;;;;;;35.73;19.90;;;3.90;99.90;;;;;;5032487;28;20222;-74
2022/12/05 11:52:21;;;;;;;35.07;20.17;;;3.90;99.90;;;;;;5032237;28;20223;-74
2022/12/05 11:55:18;;;;;;;38.63;19.87;;;3.90;99.90;;;;;;5026847;28;20224;-73
2022/12/05 11:58:20;;;;;;;39.20;19.83;;;3.90;99.90;;;;;;5047578;28;20257;-74
2022/12/05 12:01:23;;;;;;;45.20;20.83;;;4.00;99.90;;;;;;5032149;28;20227;-74
2022/12/05 12:04:10;;;;;;;37.53;18.97;;;4.00;99.90;;;;;;5030454;28;20224;-75
2022/12/05 12:07:09;;;;;;;38.83;20.20;;;4.00;99.90;;;;;;5027871;28;20236;-73
2022/12/05 12:10:02;;;;;;;36.33;20.73;;;4.00;99.90;;;;;;5030826;28;20464;-73
2022/12/05 12:12:48;;;;;;;37.80;20.23;;;4.00;99.90;;;;;;5026763;28;20187;-73
2022/12/05 12:15:22;;;;;;;39.97;20.03;;;4.00;99.90;;;;;;5025165;28;20210;-74
2022/12/05 12:18:01;;;;;;;40.93;21.50;;;4.00;99.90;;;;;;5028423;28;20634;-75
2022/12/05 12:20:48;;;;;;;71.87;38.93;;;4.00;99.90;;;;;;5028514;28;20415;-74
2022/12/05 12:23:19;;;;;;;35.47;20.73;;;4.00;99.90;;;;;;5031162;28;20266;-74
2022/12/05 12:26:10;;;;;;;37.40;20.07;;;4.00;99.90;;;;;;5027667;28;20222;-74
2022/12/05 12:28:45;;;;;;;37.67;20.30;;;4.00;99.90;;;;;;5027247;28;20209;-74
2022/12/05 12:31:42;;;;;;;42.63;22.33;;;4.00;99.90;;;;;;5028529;28;20306;-74
2022/12/05 12:34:26;;;;;;;41.93;21.50;;;4.00;99.90;;;;;;5040405;28;20214;-75
2022/12/05 12:37:12;;;;;;;40.33;21.60;;;4.00;99.90;;;;;;5027933;28;20212;-76
2022/12/05 12:40:00;;;;;;;44.70;22.57;;;4.00;99.90;;;;;;5024244;28;20220;-75
2022/12/05 12:42:48;;;;;;;43.07;22.63;;;4.00;99.90;;;;;;5025697;28;20670;-74
2022/12/05 12:45:26;;;;;;;51.17;27.00;;;4.00;99.90;;;;;;4999755;28;20214;-72
2022/12/05 12:48:03;;;;;;;47.07;23.77;;;4.00;99.90;;;;;;5023617;28;20190;-75
2022/12/05 12:50:36;;;;;;;44.23;22.80;;;4.10;99.90;;;;;;5030263;28;20724;-75
2022/12/05 12:53:20;;;;;;;45.27;22.23;;;4.00;99.90;;;;;;5029136;28;20265;-75
2022/12/05 12:55:55;;;;;;;49.07;25.07;;;4.00;99.90;;;;;;5026032;28;20203;-72
2022/12/05 12:58:41;;;;;;;52.00;24.70;;;4.10;99.90;;;;;;5031553;28;20205;-74
2022/12/05 13:01:38;;;;;;;47.90;23.53;;;4.10;99.90;;;;;;5021537;28;20589;-75
2022/12/05 13:04:28;;;;;;;48.37;24.33;;;4.10;99.90;;;;;;5029070;28;20224;-75
2022/12/05 13:07:04;;;;;;;50.93;25.80;;;4.00;99.90;;;;;;5018369;28;20220;-75
2022/12/05 13:09:39;;;;;;;54.93;26.30;;;4.00;99.90;;;;;;5026086;28;20252;-75
2022/12/05 13:12:10;;;;;;;53.00;25.37;;;4.00;99.90;;;;;;5027464;28;20331;-74
2022/12/05 13:14:38;;;;;;;55.47;25.07;;;4.00;99.90;;;;;;5025175;28;20223;-74